Velovelo
Português Nederlands 日本語 中文
Español English čeština slovenčina
русский italiano polski norsk
français Deutsch svenska عربي
 
 pagina precedente
 Mandare ad un amico
 Stampare articolo
 ---> La Ventoux Beaume de Venise 2008 : Résultats du 102 km

ClassNomPrénomCat.C.c..Temps........Ecart..
1 TROUSSET THOMAS C 1 03:38:30.2 0:00:00
2 IGOULEN BENOIT C 2 03:38:31.6 0:00:01
3 NENZI JACQUES E 1 03:42:19.1 0:03:49
4 TRUILLET STEPHANE D 1 03:42:53.2 0:04:23
5 D’ANGIO GERARD E 2 03:44:50.2 0:06:20
6 MONTIEL J.PIERRE E 3 03:45:27.7 0:06:57
7 SEIGNEZ FLORENT E 4 03:47:09.8 0:08:39
8 AMAR NICOLAS D 2 03:48:41.5 0:10:11
9 VINHNAU EDDY C 3 03:48:42.9 0:10:12
10 ROBELAIN DAVID D 3 03:51:41.5 0:13:11
11 GALLEN HERVE F 1 03:51:43.1 0:13:13
12 HERNANDEZ GILLES D 4 03:51:46.7 0:13:16
13 COQUARD FREDERIC C 4 03:52:20.2 0:13:50
14 FREAU DENIS F 2 03:52:20.5 0:13:50
15 FOURET CHRISTIAN E 5 03:52:32.5 0:14:02
16 RENAUDIN ANDRE F 3 03:52:43.3 0:14:13
17 CARAMEL MAXIME C 5 03:53:19.2 0:14:49
18 MAR DANY E 6 03:53:23.5 0:14:53
19 NIVOT PASCAL E 7 03:53:33.3 0:15:03
20 BARBINI BRUNO D 5 03:54:06.9 0:15:36
21 BOUQUET PIERRE F 4 03:54:42.3 0:16:12
22 ROBERT JEAN MICHEL E 8 03:54:48.2 0:16:18
23 BARBOSA JOSE D 6 03:54:49.4 0:16:19
24 ANDREOTTI PATRICK E 9 03:56:11.5 0:17:41
25 ARMANDO FABRIZIO D 7 03:56:31.3 0:18:01
26 FEREIRE BRUNO E 10 03:57:21.2 0:18:51
27 CHARDIGNY PASCAL E 11 03:57:25.8 0:18:55
28 FOYOT JEAN LOUIS F 5 03:57:49.4 0:19:19
29 LOPEZ MARC E 12 03:59:03.9 0:20:33
30 GRANON FELIX G 1 03:59:23.5 0:20:53
31 REVELLI MARCO D 8 03:59:24.0 0:20:54
32 CHEVALLIER FRANCK E 13 03:59:47.1 0:21:17
33 CERAN PHILIPPE D 9 04:00:03.2 0:21:33
34 VIAL JACQUES E 14 04:00:04.6 0:21:34
35 SADOUL OLIVIER E 15 04:00:05.6 0:21:35
36 CRADDOCK STACEY E 16 04:00:11.1 0:21:41
37 MAMBRE GILLES E 17 04:00:18.7 0:21:48
38 BENEDETTO VALERE E 18 04:01:17.6 0:22:47
39 BARSOTTI ANTHONY C 6 04:02:48.7 0:24:18
40 LAVIE DANIEL F 6 04:03:06.5 0:24:36
41 PUGNET THIERRY E 19 04:04:14.5 0:25:44
42 LICINI MARC F 7 04:04:20.6 0:25:50
43 ASTIC ANTOINE C 7 04:04:21.5 0:25:51
44 MANTOVANI DAVID D 10 04:04:22.8 0:25:52
45 VERROT PATRICK E 20 04:04:23.9 0:25:53
46 MARCHESSEAU PHILIPPE F 8 04:04:26.5 0:25:56
47 OLLIVIER ALAIN F 9 04:04:28.6 0:25:58
48 MAS JEAN FRANCOIS E 21 04:04:29.2 0:25:59
49 MARTIN ALEX E 22 04:04:54.2 0:26:24
50 BERTOLINO FABRICE E 23 04:04:56.4 0:26:26
51 MERLE HENRI E 24 04:05:04.7 0:26:34
52 GONZALES PHILIPPE F 10 04:05:13.2 0:26:43
53 GONZALES LAURENT C 8 04:05:14.5 0:26:44
54 GRILLAT SYLVAIN D 11 04:07:32.6 0:29:02
55 BENAREAU IGNAKI E 25 04:07:36.3 0:29:06
56 GRIECO PASCAL E 26 04:07:37.7 0:29:07
57 PATIN PIERRE E 27 04:08:40.6 0:30:10
58 BOUHOURDIN HUBERT D 12 04:08:42.1 0:30:12
59 BOROWCZAK THOMAS D 13 04:08:44.8 0:30:14
60 FILLE JEAN CLAUDE E 28 04:08:48.2 0:30:18
61 VIARD DAVID D 14 04:08:50.2 0:30:20
62 ROQUE ERIC E 29 04:08:52.1 0:30:22
63 PAPADAKIS STEPHANE E 30 04:09:04.3 0:30:34
64 FERRERE GERARD G 2 04:09:12.4 0:30:42
65 LHARDY MICHEL F 11 04:10:22.4 0:31:52
66 PICHON PHILIPPE D 15 04:10:51.9 0:32:21
67 ENCINAR EMILE E 31 04:10:52.5 0:32:22
68 BERTRAND JEAN-PAUL F 12 04:12:14.2 0:33:44
69 MOREAU BENOIT C 9 04:13:40.1 0:35:10
70 MAROUBY WILLIAM E 32 04:13:41.0 0:35:11
71 ROYS DOMINIQUE E 33 04:13:43.9 0:35:13
72 MARSOLLIER DIDIER E 34 04:13:46.9 0:35:16
73 GIRAUD TELME YVAN J 1 04:13:53.1 0:35:23
74 JAMMES CHRISTIAN D 16 04:13:54.0 0:35:24
75 LAUNAY C 10 04:15:03.5 0:36:33
76 DESROY CHRISTOPHE D 17 04:15:06.7 0:36:36
77 BIDOLI MATTHIEU D 18 04:15:10.0 0:36:40
78 DUCREUX DAVID C 11 04:17:19.0 0:38:49
79 CHASSAGNE PHILIPPE F 13 04:17:26.8 0:38:56
80 MESSY PATRICK E 35 04:19:11.1 0:40:41
81 BOURGUIGNON THIERRY E 36 04:19:31.0 0:41:01
82 BRIANT JACQUES G 3 04:19:50.4 0:41:20
83 NABOT DAVID D 19 04:19:52.0 0:41:22
84 DELMOTTE DOMINIQUE F 14 04:19:53.3 0:41:23
85 CUESTA HILARIO D 20 04:19:55.5 0:41:25
86 ROBERTSON STUART E 37 04:19:56.3 0:41:26
87 VILLERMY PATRICK E 38 04:20:08.8 0:41:38
88 BUHOT GEORGES E 39 04:20:27.2 0:41:57
89 LE COCGUEN PHILIPPE E 40 04:21:02.0 0:42:32
90 BREUGELMANS IVO G 4 04:21:58.8 0:43:28
91 CHENOIX RENE E 41 04:22:00.2 0:43:30
92 DISSAC PIERRE F 15 04:22:17.2 0:43:47
93 TESTUT NOEL F 16 04:22:21.6 0:43:51
94 GARCIA HERVE E 42 04:23:40.7 0:45:10
95 VINH MAU THIERRY E 43 04:23:58.1 0:45:28
96 GLADIEUX LAURENT E 44 04:24:27.3 0:45:57
97 DEJAEGHER GERY E 45 04:24:34.3 0:46:04
98 VOETS FRANCOIS F 17 04:25:20.1 0:46:50
99 ZANCHI PASCAL D 21 04:25:24.5 0:46:54
100 CHAURAND ARNAUD D 22 04:26:13.2 0:47:43
101 LAFRANCHISE DIDIER F 18 04:26:27.3 0:47:57
102 BORDON ANGEL E 46 04:26:30.1 0:48:00
103 BONZOMS CHRISTOPHE D 23 04:26:31.2 0:48:01
104 PENDERY ANDREW E 47 04:26:32.3 0:48:02
105 MATHE DANIEL F 19 04:26:33.1 0:48:03
106 LECLERC JEAN LOUIS G 5 04:26:36.3 0:48:06
107 BERTHIER THIERRY F 20 04:27:49.7 0:49:19
108 PLUSQUELLEC GILLES D 24 04:28:23.7 0:49:53
109 PARRAMON ANDRE E 48 04:28:28.8 0:49:58
110 CHAMBON STEPHANE J 2 04:28:43.8 0:50:13
111 CUZIN ERIC E 49 04:29:19.2 0:50:49
112 PONSON CEDRIC D 25 04:29:28.3 0:50:58
113 CONSTANTIN SERGE E 50 04:30:07.0 0:51:37
114 CHATELAIN DOMINIQUE E 51 04:30:25.0 0:51:55
115 MARTORELL PASCAL D 26 04:30:26.2 0:51:56
116 SEBASTIEN GUY E 52 04:30:26.7 0:51:56
117 EVRARD BERNARD F 21 04:30:27.9 0:51:57
118 PONCELET ALAIN F 22 04:30:29.4 0:51:59
119 FAURE DIDIER E 53 04:30:33.7 0:52:03
120 TERRES PHILIPPE E 54 04:30:53.6 0:52:23
121 MARTY XAVIER D 27 04:31:02.9 0:52:32
122 BARDE JEAN CHARLES G 6 04:31:05.3 0:52:35
123 LEVASSEUR JEAN PIERRE F 23 04:31:09.1 0:52:39
124 GALLEN NATHALIE AB 1 04:32:28.0 0:53:58
125 NOEL JEAN-CHRISTOPHE E 55 04:32:57.3 0:54:27
126 BOUGEARD CLAUDE D 28 04:32:59.5 0:54:29
127 PRUNIER DAVID D 29 04:33:14.8 0:54:44
128 ROSSO JEAN PIERRE G 7 04:33:28.0 0:54:58
129 BLAYA PIERRE D 30 04:35:41.6 0:57:11
130 ESPOS ARTHUR D 31 04:36:39.4 0:58:09
131 SORROCHE JEAN PASCAL E 56 04:36:43.2 0:58:13
132 GUIBERT SYLVAIN D 32 04:36:50.9 0:58:20
133 FOUR JEAN NOEL F 24 04:38:32.8 1:00:02
134 PHILIP PIERRE E 57 04:39:24.0 1:00:54
135 PAOLINI RENATO F 25 04:39:24.5 1:00:54
136 MAS FABRICE E 58 04:39:25.9 1:00:55
137 MORISSON DAVID D 33 04:39:26.7 1:00:56
138 POGGI CYRIL D 34 04:39:37.4 1:01:07
139 GINOUX DENIS F 26 04:39:53.5 1:01:23
140 MENDEZ PEDRO E 59 04:40:02.8 1:01:32
141 ROSS JON E 60 04:40:12.5 1:01:42
142 WEULERSSE BERNARD D 35 04:40:47.3 1:02:17
143 MASTICO FABRICE D 36 04:41:22.8 1:02:52
144 FAUSTIN MICHEL E 61 04:41:23.7 1:02:53
145 GROSMAIRE PHILIPPE E 62 04:41:24.5 1:02:54
146 FILHOL GILLES E 63 04:41:26.1 1:02:56
147 GELAESEM STEFAAN D 37 04:41:51.1 1:03:21
148 HUOT ROLAND F 27 04:43:00.2 1:04:30
149 GUIGNARD CLAUDE E 64 04:43:27.5 1:04:57
150 IMBERT JEAN FRANCOIS F 28 04:43:33.4 1:05:03
151 VACARELLA FREDERIC E 65 04:44:44.5 1:06:14
152 CARBONNEL ROBERT G 8 04:44:45.8 1:06:15
153 BARENGER ANTHONY D 38 04:44:56.6 1:06:26
154 LUSI PEPINO F 29 04:45:13.4 1:06:43
155 VIAL PATRICE C 12 04:47:05.3 1:08:35
156 PUGLIESI JEAN NOEL D 39 04:48:46.0 1:10:16
157 CAZILLAC PATRICE D 40 04:48:54.2 1:10:24
158 AMATA RICHARD E 66 04:48:57.7 1:10:27
159 LAFFERRIERE FRANCIS F 30 04:49:00.3 1:10:30
160 SALINAS CHRISTOPHE E 67 04:49:02.7 1:10:32
161 COMBET JEAN FRANCOIS F 31 04:49:21.7 1:10:51
162 PEDERSEN MALENE AB 2 04:49:46.0 1:11:16
163 PIERRET CHRISTOPHE E 68 04:49:48.2 1:11:18
164 MANCINI ROBERT E 69 04:49:56.8 1:11:26
165 BAILLY CHRISTOPHE D 41 04:50:30.9 1:12:00
166 HADDOCK SIMON E 70 04:50:36.8 1:12:06
167 SIFFRE JEAN MARIE D 42 04:50:41.0 1:12:11
168 BOYET MICHEL G 9 04:50:42.3 1:12:12
169 RECKINGER J.PIERRE F 32 04:52:16.2 1:13:46
170 SKRYPZAK HENRI G 10 04:52:17.5 1:13:47
171 CHETCUTI PATRICK E 71 04:52:44.2 1:14:14
172 RAULT EMMANUEL D 43 04:52:45.0 1:14:15
173 CLAVERIE KAROL Hom 1 04:52:46.8 1:14:16
174 CARAMEL ALAIN E 72 04:54:00.7 1:15:30
175 ACCARDI LORENZO F 33 04:54:03.1 1:15:33
176 ARMAND CHRISTOPHE E 73 04:54:04.2 1:15:34
177 BESNARD MARC Hom 2 04:54:49.7 1:16:19
178 BEN ABDESLEM MOHAMED G 11 04:54:51.3 1:16:21
179 MILLOCHAU REGIS E 74 04:54:54.1 1:16:24
180 GERARD PHILIPPE F 34 04:55:26.6 1:16:56
181 PEREIRA DOMINGOS D 44 04:55:37.3 1:17:07
182 CHARDON PIERRE E 75 04:55:40.7 1:17:10
183 PEDEUTOUR PIERRE F 35 04:55:59.2 1:17:29
184 ROVET DOMINIQUE F 36 04:56:01.6 1:17:31
185 ALARY ALAIN E 76 04:56:03.2 1:17:33
186 MORET JEAN BERNARD F 37 04:56:05.6 1:17:35
187 FABRY MAX F 38 04:57:06.2 1:18:36
188 CALERO JUAN G 12 04:57:40.8 1:19:10
189 NECULOIU BOGDAN E 77 04:58:13.8 1:19:43
190 PICARD GUILLAUME C 13 04:58:42.8 1:20:12
191 NEDELEC PATRICK F 39 04:58:44.7 1:20:14
192 DURIGON JEAN F 40 04:59:48.0 1:21:18
193 MACCOCIM MARCO E 78 05:00:04.5 1:21:34
194 DESRAYAUD JACQUES F 41 05:00:06.8 1:21:36
195 JALADE JEAN-FRANCOIS D 45 05:00:56.5 1:22:26
196 POISSON LUC F 42 05:00:57.9 1:22:27
197 BENOIT FREDERIC D 46 05:02:14.4 1:23:44
198 MAISSE EMMANUEL E 79 05:03:08.8 1:24:38
199 BALLESTRACCI STEFANO E 80 05:03:43.6 1:25:13
200 AUBERT PATRICE F 43 05:04:27.9 1:25:57
201 BIARD AGNES AB 3 05:04:47.0 1:26:17
202 BONFILS FRANCOIS E 81 05:04:50.0 1:26:20
203 CALZIA JEAN CLAUDE G 13 05:05:25.1 1:26:55
204 VAN DER KOLK THIJS E 82 05:06:30.0 1:28:00
205 LIGONESCHE MICHEL F 44 05:09:16.1 1:30:46
206 LLANTA VINCENT D 47 05:09:19.1 1:30:49
207 HAGOORT ROEL E 83 05:09:20.7 1:30:50
208 BOLLIET DENIS F 45 05:09:44.3 1:31:14
209 BERNARD ALAIN F 46 05:09:45.8 1:31:15
210 GAUTHIER MICHEL G 14 05:10:59.9 1:32:29
211 LEMPEREUR FREDDY E 84 05:11:01.5 1:32:31
212 COET JEAN PIERRE E 85 05:11:06.8 1:32:36
213 ABBATIELLO JEAN CLAUDE D 48 05:11:10.5 1:32:40
214 BAUDART STEPHANE E 86 05:12:17.4 1:33:47
215 CASADEVALL MERLIN JEAN LOUIS E 87 05:13:03.5 1:34:33
216 JACOB JEAN CHRISTIAN E 88 05:13:21.3 1:34:51
217 FENEAU ALAIN G 15 05:13:23.1 1:34:53
218 DEVOYON LAURENT D 49 05:13:59.9 1:35:29
219 TERRY PASCAL F 47 05:14:06.3 1:35:36
220 DEGAGNY EDOUARD C 14 05:14:06.7 1:35:36
221 ROBERT FRANC AB 4 05:14:17.8 1:35:47
222 VACHER RUDY D 50 05:14:20.7 1:35:50
223 GINHOUX JEAN F 48 05:14:22.9 1:35:52
224 BROWN STUART F 49 05:14:24.0 1:35:54
225 ISOARDI FABRICE D 51 05:15:36.3 1:37:06
226 MANTOVANI BRUNO E 89 05:16:30.7 1:38:00
227 LARY CHRISTIAN F 50 05:16:32.6 1:38:02
228 MORIN PHILIPPE D 52 05:17:36.0 1:39:06
229 BOURG J.JACQUES F 51 05:18:19.5 1:39:49
230 FONZO MARC G 16 05:18:40.7 1:40:10
231 FAURE JEAN CLAUDE F 52 05:19:13.7 1:40:43
232 SABATIER RAYMOND F 53 05:19:53.2 1:41:23
233 SIERES-IBANEZ HELIOS G 17 05:20:06.6 1:41:36
234 COLOMBINO LAURENT E 90 05:20:11.9 1:41:41
235 HOLLINGSWORTH RICHARD E 91 05:21:04.9 1:42:34
236 MAUME JACQUES F 54 05:21:08.1 1:42:38
237 LO PICCOLO CARLO E 92 05:21:37.2 1:43:07
238 GEINDREAU FLORENT E 93 05:22:14.2 1:43:44
239 CALUWAERTS FRANCOIS G 18 05:22:47.2 1:44:17
240 AMOUROUX GUY G 19 05:22:58.9 1:44:28
241 BROCHARD ROGER G 20 05:23:01.6 1:44:31
242 DE CORTE JEAN MARC E 94 05:23:12.3 1:44:42
243 DAUTRAIX CHRISTOPHE D 53 05:23:16.4 1:44:46
244 OUDJANE KARIM C 15 05:23:37.7 1:45:07
245 BARTHES DIDIER F 55 05:24:41.7 1:46:11
246 GARCIA DIDIER E 95 05:25:40.1 1:47:10
247 CARRARA CLAUDE F 56 05:25:42.2 1:47:12
248 GILOT PHILIPPE F 57 05:26:00.6 1:47:30
249 BUFFET PIERRE ANTOINE C 16 05:26:42.7 1:48:12
250 MASTICO GUILLAUME C 17 05:26:46.9 1:48:16
251 OLAIZOLA JEAN PIERRE G 21 05:28:05.2 1:49:35
252 MILLET-BAYOL CHRISTINE AB 5 05:28:08.1 1:49:38
253 LOWETTE JURGEN D 54 05:28:43.7 1:50:13
254 COLLA FRANCK D 55 05:28:44.6 1:50:14
255 HICKS PAUL E 96 05:29:23.4 1:50:53
256 BARDAY GUY F 58 05:30:02.5 1:51:32
257 ASTON GARY E 97 05:33:39.9 1:55:09
258 FRIZZO GIAMPIETRO E 98 05:35:24.8 1:56:54
259 CARRARO CARLA AB 6 05:35:26.2 1:56:56
260 BAYARD YVES E 99 05:35:36.5 1:57:06
261 MANTOVANI BERNARD F 59 05:35:40.6 1:57:10
262 GAILHARD JEAN CLAUDE G 22 05:36:44.4 1:58:14
263 BOSHOUWERS GUUS F 60 05:38:01.3 1:59:31
264 DELLONG CLAUDE F 61 05:38:04.7 1:59:34
265 BOSCH MAX E 100 05:38:46.4 2:00:16
266 MOREAU BERNARD F 62 05:39:24.3 2:00:54
267 SWINHOE ALAN E 101 05:39:32.4 2:01:02
268 GERENTON REGIS G 23 05:40:35.0 2:02:05
269 COET JEAN PIERRE F 63 05:41:20.4 2:02:50
270 ROTGER JACQUES F 64 05:41:31.1 2:03:01
271 GODARD FREDERIC E 102 05:42:55.6 2:04:25
272 MAUCOURT MICHEL G 24 05:43:14.5 2:04:44
273 HURLIN ORLANE AB 7 05:43:50.0 2:05:20
274 HURLIN DENIS D 56 05:43:51.8 2:05:21
275 NAPOLY GILLES E 103 05:44:08.1 2:05:38
276 JOHNSON ALISON A 1 05:44:44.0 2:06:14
277 ANNEQUIN JEAN PHILIPPE D 57 05:46:25.0 2:07:55
278 FEBVRET PIERRE Hom 3 05:47:11.2 2:08:41
279 CALLENS LAURENT D 58 05:47:44.5 2:09:14
280 LABARRE DOMINIQUE E 104 05:48:25.4 2:09:55
281 GADAUD JOCELYNE B 1 05:52:00.6 2:13:30
282 CALLET HERVE E 105 05:52:18.2 2:13:48
283 SABATIER MICHEL HENRY F 65 05:55:51.0 2:17:21
284 LAQUET JOUANNEAU JACQUES FRANCOISE H 1 05:56:13.8 2:17:43
285 PICARD ALAIN F 66 05:58:35.4 2:20:05
286 MENEZ PIERRE YVES D 59 06:00:45.3 2:22:15
287 MARTI GERARD E 106 06:01:59.3 2:23:29
288 MORVILLE PHILIPPE F 67 06:02:03.6 2:23:33
289 SPOOR MARTIN G 25 06:05:04.4 2:26:34
290 RASKIN MADELEINE B 2 06:05:30.0 2:27:00
291 CHOUFFART JACQUES F 68 06:05:31.3 2:27:01
292 MAILHE CHRISTOPHE E 107 06:05:32.7 2:27:02
293 DURAN FRANCIS F 69 06:05:39.9 2:27:09
294 LIEVERS FRANCISKA AB 8 06:07:27.0 2:28:57
295 BOILEAU ANTOINE F 70 06:08:10.0 2:29:40
296 HAUTEFEUILLE BERNARD F 71 06:08:11.0 2:29:41
297 RIVIERE OLIVIER E 108 06:08:12.3 2:29:42
298 BECART FRANCIS G 26 06:08:15.4 2:29:45
299 CHAMPION VINCENT F 72 06:08:35.7 2:30:05
300 VERDIER LIONEL D 60 06:10:11.1 2:31:41
301 BROUTIN MICHEL F 73 06:10:30.9 2:32:00
302 DE GROTE VAN VELZEN KOEN F 74 06:11:58.0 2:33:28
303 HONORE PHILIPPE E 109 06:12:09.6 2:33:39
304 POLVERONI ISABELLE AB 9 06:16:16.6 2:37:46
305 MALFILATRE JEAN RENE E 110 06:16:17.9 2:37:47
306 VANDEWALLE MICHEL F 75 06:16:41.4 2:38:11
307 DURY EMMANUEL F 76 06:17:36.2 2:39:06
308 GERACE FRANCO E 111 06:20:00.3 2:41:30
309 HUS RUDY E 112 06:21:34.1 2:43:04
310 DELUCIS MARCO E 113 06:25:19.6 2:46:49
311 VALVERDE JOSEPH E 114 06:26:07.6 2:47:37
312 JEWELL MARK F 77 06:32:04.8 2:53:34
313 WALLBANK JAMES E 115 06:32:06.6 2:53:36
314 MCKEAN ANDREW E 116 06:32:07.8 2:53:37
315 COLSON JEAN LOUIS F 78 06:34:04.7 2:55:34
316 DESSINGES FRANCOIS D 61 06:35:58.9 2:57:28
317 DESSINGES SERGE D 62 06:36:01.9 2:57:31
318 CLIFFORD SAMANTHA AB 10 06:38:27.4 2:59:57
319 BITTLESTONE CHRISTOPHE E 117 06:38:29.0 2:59:59
320 CONDON TONY F 79 06:38:30.1 3:00:00
321 GUERRERO ORLANDO E 118 06:44:19.7 3:05:49
322 GUERRERO NATHALIE AB 11 06:44:21.9 3:05:51
323 GUEIBE GUY F 80 06:56:48.4 3:18:18
324 HENNER GEORGES F 81 07:23:13.8 3:44:43
325 DUCLOS MARYVONNE AB 12 07:27:22.6 3:48:52

Voir -> La Ventoux Beaume de Venise 2008 : Résultats du 170 km

Haut 









Haut  
 Area riservata   Diritti di autore-Copyright: Cliccate qui per leggere !